createdAt,value
2019-01-02T00:01:44.971Z,2.80
2019-01-02T00:04:12.325Z,3.00
2019-01-02T00:06:39.544Z,2.83
2019-01-02T00:09:07.009Z,3.00
2019-01-02T00:11:34.196Z,2.87
2019-01-02T00:14:01.387Z,2.67
2019-01-02T00:16:28.880Z,2.73
2019-01-02T00:18:56.034Z,2.93
2019-01-02T00:21:23.323Z,3.63
2019-01-02T00:23:50.480Z,3.10
2019-01-02T00:26:17.884Z,3.00
2019-01-02T00:28:45.141Z,2.80
2019-01-02T00:31:12.629Z,2.70
2019-01-02T00:33:39.792Z,2.70
2019-01-02T00:36:07.079Z,2.77
2019-01-02T00:38:34.586Z,3.93
2019-01-02T00:41:01.954Z,3.30
2019-01-02T00:43:29.175Z,3.47
2019-01-02T00:45:56.749Z,3.70
2019-01-02T00:48:23.907Z,2.97
2019-01-02T00:50:51.301Z,2.93
2019-01-02T00:53:18.486Z,3.70
2019-01-02T00:55:45.953Z,3.40
2019-01-02T00:58:13.164Z,3.30
2019-01-02T01:00:41.288Z,3.30
2019-01-02T01:03:08.349Z,2.87
2019-01-02T01:05:35.742Z,3.43
2019-01-02T01:08:02.907Z,3.27
2019-01-02T01:10:30.057Z,3.33
2019-01-02T01:12:57.279Z,2.80
2019-01-02T01:15:24.424Z,4.33
2019-01-02T01:17:51.492Z,2.70
2019-01-02T01:20:19.298Z,3.43
2019-01-02T01:22:46.362Z,2.67
2019-01-02T01:25:13.836Z,2.60
2019-01-02T01:27:41.069Z,2.73
2019-01-02T01:30:09.277Z,3.70
2019-01-02T01:32:36.511Z,3.30
2019-01-02T01:35:04.911Z,2.63
2019-01-02T01:37:33.062Z,3.33
2019-01-02T01:40:00.258Z,3.00
2019-01-02T01:42:27.740Z,3.23
2019-01-02T01:44:54.798Z,3.07
2019-01-02T01:47:21.971Z,2.90
2019-01-02T01:49:49.156Z,3.40
2019-01-02T01:52:16.309Z,3.07
2019-01-02T01:54:43.804Z,4.77
2019-01-02T01:57:11.145Z,3.07
2019-01-02T01:59:38.251Z,2.43
2019-01-02T02:02:05.407Z,3.30
2019-01-02T02:04:33.052Z,4.60
2019-01-02T02:07:00.518Z,3.20
2019-01-02T02:09:27.690Z,2.23
2019-01-02T02:11:54.907Z,2.67
2019-01-02T02:14:22.055Z,4.03
2019-01-02T02:16:49.121Z,3.20
2019-01-02T02:19:16.881Z,3.50
2019-01-02T02:21:43.933Z,3.90
2019-01-02T02:24:11.097Z,3.97
2019-01-02T02:26:38.304Z,3.90
2019-01-02T02:29:05.457Z,3.87
2019-01-02T02:31:33.312Z,3.27
2019-01-02T02:34:00.779Z,3.63
2019-01-02T02:36:29.259Z,3.10
2019-01-02T02:38:56.720Z,3.50
2019-01-02T02:41:24.253Z,4.13
2019-01-02T02:43:51.871Z,3.73
2019-01-02T02:46:18.955Z,4.03
2019-01-02T02:48:46.128Z,3.47
2019-01-02T02:51:13.723Z,4.00
2019-01-02T02:53:41.443Z,3.73
2019-01-02T02:56:08.957Z,3.10
2019-01-02T02:58:36.420Z,4.13
2019-01-02T03:01:03.920Z,3.60
2019-01-02T03:03:31.395Z,3.80
2019-01-02T03:05:58.790Z,2.90
2019-01-02T03:08:25.857Z,4.77
2019-01-02T03:10:53.644Z,4.40
2019-01-02T03:13:21.144Z,3.53
2019-01-02T03:15:48.602Z,3.00
2019-01-02T03:18:16.086Z,3.20
2019-01-02T03:20:43.132Z,3.50
2019-01-02T03:23:10.313Z,4.77
2019-01-02T03:25:37.800Z,3.17
2019-01-02T03:28:05.186Z,3.10
2019-01-02T03:30:32.651Z,3.70
2019-01-02T03:33:00.339Z,4.00
2019-01-02T03:35:27.762Z,4.50
2019-01-02T03:37:55.132Z,4.43
2019-01-02T03:40:22.332Z,5.10
2019-01-02T03:42:49.497Z,4.20
2019-01-02T03:45:17.975Z,3.47
2019-01-02T03:47:45.112Z,4.63
2019-01-02T03:50:14.240Z,4.10
2019-01-02T03:52:41.414Z,4.00
2019-01-02T03:55:08.729Z,3.90
2019-01-02T03:57:36.031Z,3.67
2019-01-02T04:00:04.479Z,3.80
2019-01-02T04:02:31.686Z,6.30
2019-01-02T04:04:58.885Z,4.73
2019-01-02T04:07:26.060Z,3.73
2019-01-02T04:09:53.170Z,3.63
2019-01-02T04:12:20.351Z,4.07
2019-01-02T04:14:47.434Z,5.60
2019-01-02T04:17:14.909Z,4.20
2019-01-02T04:19:42.068Z,4.47
2019-01-02T04:22:09.253Z,3.57
2019-01-02T04:24:36.428Z,3.90
2019-01-02T04:27:03.603Z,3.90
2019-01-02T04:29:30.760Z,4.27
2019-01-02T04:31:57.968Z,4.10
2019-01-02T04:34:25.123Z,3.40
2019-01-02T04:36:52.299Z,4.40
2019-01-02T04:39:19.478Z,5.40
2019-01-02T04:41:46.651Z,4.20
2019-01-02T04:44:13.818Z,4.17
2019-01-02T04:46:41.109Z,4.27
2019-01-02T04:49:08.276Z,3.80
2019-01-02T04:51:35.424Z,4.30
2019-01-02T04:54:02.649Z,3.30
2019-01-02T04:56:29.705Z,3.60
2019-01-02T04:58:56.938Z,4.10
2019-01-02T05:01:24.080Z,2.60
2019-01-02T05:03:51.263Z,3.53
2019-01-02T05:06:18.414Z,3.40
2019-01-02T05:08:45.595Z,3.40
2019-01-02T05:11:12.735Z,3.40
2019-01-02T05:13:39.918Z,4.03
2019-01-02T05:16:08.034Z,3.63
2019-01-02T05:18:35.483Z,3.33
2019-01-02T05:21:02.586Z,3.67
2019-01-02T05:23:29.785Z,3.47
2019-01-02T05:25:56.964Z,4.40
2019-01-02T05:28:24.045Z,3.60
2019-01-02T05:30:51.229Z,3.80
2019-01-02T05:33:18.281Z,3.60
2019-01-02T05:35:45.364Z,3.40
2019-01-02T05:38:12.492Z,3.87
2019-01-02T05:40:39.652Z,2.63
2019-01-02T05:43:07.170Z,4.33
2019-01-02T05:45:34.350Z,3.67
2019-01-02T05:48:01.433Z,4.10
2019-01-02T05:50:29.498Z,4.93
2019-01-02T05:52:56.706Z,3.73
2019-01-02T05:55:23.856Z,3.77
2019-01-02T05:57:51.054Z,3.37
2019-01-02T06:00:18.263Z,4.23
2019-01-02T06:02:45.346Z,4.80
2019-01-02T06:05:12.504Z,4.07
2019-01-02T06:07:39.685Z,4.60
2019-01-02T06:10:09.664Z,4.47
2019-01-02T06:12:36.856Z,5.70
2019-01-02T06:15:04.949Z,3.83
2019-01-02T06:17:32.704Z,3.23
2019-01-02T06:19:59.788Z,3.97
2019-01-02T06:22:27.096Z,4.00
2019-01-02T06:24:54.302Z,3.60
2019-01-02T06:27:21.455Z,3.23
2019-01-02T06:29:48.671Z,3.53
2019-01-02T06:32:15.841Z,4.53
2019-01-02T06:34:43.059Z,4.27
2019-01-02T06:37:10.245Z,5.23
2019-01-02T06:39:37.478Z,6.30
2019-01-02T06:42:04.631Z,4.30
2019-01-02T06:44:32.073Z,4.77
2019-01-02T06:46:59.231Z,4.07
2019-01-02T06:49:26.409Z,3.97
2019-01-02T06:51:53.581Z,4.53
2019-01-02T06:54:20.757Z,4.23
2019-01-02T06:56:47.826Z,4.87
2019-01-02T06:59:15.026Z,5.13
2019-01-02T07:01:42.070Z,4.80
2019-01-02T07:04:09.222Z,3.60
2019-01-02T07:06:36.582Z,5.20
2019-01-02T07:09:05.186Z,4.10
2019-01-02T07:11:32.381Z,4.33
2019-01-02T07:13:59.655Z,4.67
2019-01-02T07:16:26.805Z,3.80
2019-01-02T07:18:53.960Z,3.50
2019-01-02T07:21:21.172Z,4.50
2019-01-02T07:23:48.328Z,5.33
2019-01-02T07:26:15.487Z,3.77
2019-01-02T07:28:42.728Z,5.47
2019-01-02T07:31:09.890Z,4.30
2019-01-02T07:33:45.265Z,4.47
2019-01-02T07:36:54.097Z,5.00
2019-01-02T07:40:06.510Z,5.33
2019-01-02T07:43:39.607Z,5.40
2019-01-02T07:46:44.489Z,3.50
2019-01-02T07:49:39.426Z,3.97
2019-01-02T07:52:24.820Z,3.63
2019-01-02T07:55:54.910Z,4.40
2019-01-02T07:59:15.812Z,3.93
2019-01-02T08:02:20.369Z,4.70
2019-01-02T08:05:13.353Z,4.33
2019-01-02T08:08:04.372Z,5.53
2019-01-02T08:11:12.337Z,4.23
2019-01-02T08:14:28.620Z,4.57
2019-01-02T08:17:29.819Z,4.20
2019-01-02T08:20:53.865Z,4.50
2019-01-02T08:23:47.385Z,4.20
2019-01-02T08:27:11.333Z,5.63
2019-01-02T08:30:14.106Z,4.23
2019-01-02T08:33:08.756Z,4.73
2019-01-02T08:36:17.994Z,3.53
2019-01-02T08:39:19.820Z,4.63
2019-01-02T08:42:43.898Z,3.10
2019-01-02T08:45:34.312Z,4.47
2019-01-02T08:48:52.565Z,3.97
2019-01-02T08:51:55.621Z,3.57
2019-01-02T08:55:13.622Z,4.10
2019-01-02T08:58:28.625Z,4.10
2019-01-02T09:01:45.967Z,3.43
2019-01-02T09:04:27.131Z,3.90
2019-01-02T09:07:51.148Z,4.97
2019-01-02T09:11:01.685Z,3.30
2019-01-02T09:14:06.823Z,3.87
2019-01-02T09:17:27.808Z,4.17
2019-01-02T09:20:49.216Z,3.67
2019-01-02T09:23:53.775Z,3.53
2019-01-02T09:26:48.462Z,4.10
2019-01-02T09:29:56.581Z,3.30
2019-01-02T09:33:11.566Z,3.77
2019-01-02T09:36:35.413Z,3.70
2019-01-02T09:39:35.024Z,3.33
2019-01-02T09:42:20.028Z,4.30
2019-01-02T09:45:39.827Z,3.07
2019-01-02T09:48:48.887Z,3.80
2019-01-02T09:51:52.398Z,3.33
2019-01-02T09:54:54.307Z,3.10
2019-01-02T09:57:54.002Z,3.57
2019-01-02T10:00:56.615Z,3.73
2019-01-02T10:04:07.283Z,4.50
2019-01-02T10:07:02.816Z,3.83
2019-01-02T10:10:12.892Z,3.10
2019-01-02T10:13:07.935Z,3.33
2019-01-02T10:16:23.226Z,4.00
2019-01-02T10:19:41.274Z,4.33
2019-01-02T10:22:58.996Z,4.00
2019-01-02T10:26:00.248Z,4.17
2019-01-02T10:28:46.762Z,3.70
2019-01-02T10:31:51.176Z,4.73
2019-01-02T10:34:38.309Z,3.60
2019-01-02T10:38:00.931Z,3.07
2019-01-02T10:41:12.991Z,4.13
2019-01-02T10:44:12.093Z,3.60
2019-01-02T10:46:52.744Z,4.60
2019-01-02T10:50:07.713Z,3.37
2019-01-02T10:53:07.252Z,3.70
2019-01-02T10:56:08.446Z,4.27
2019-01-02T10:59:38.222Z,3.07
2019-01-02T11:02:37.387Z,2.63
2019-01-02T11:05:31.736Z,3.10
2019-01-02T11:08:33.593Z,2.60
2019-01-02T11:11:45.935Z,3.00
2019-01-02T11:14:50.480Z,2.70
2019-01-02T11:17:59.947Z,3.60
2019-01-02T11:21:12.110Z,2.97
2019-01-02T11:24:24.536Z,2.60
2019-01-02T11:28:00.330Z,2.70
2019-01-02T11:31:24.035Z,2.73
2019-01-02T11:34:42.112Z,3.10
2019-01-02T11:37:48.552Z,2.37
2019-01-02T11:40:51.496Z,2.90
2019-01-02T11:44:21.061Z,2.80
2019-01-02T11:46:44.994Z,3.53
2019-01-02T11:49:12.180Z,3.00
2019-01-02T11:51:39.729Z,3.50
2019-01-02T11:54:06.814Z,2.73
2019-01-02T11:56:33.999Z,2.97
2019-01-02T11:59:01.108Z,2.70
2019-01-02T12:01:28.327Z,2.70
2019-01-02T12:03:55.856Z,3.33
2019-01-02T12:06:23.391Z,2.37
2019-01-02T12:08:50.541Z,3.10
2019-01-02T12:11:17.836Z,2.90
2019-01-02T12:13:45.031Z,2.37
2019-01-02T12:16:12.239Z,2.37
2019-01-02T12:18:39.413Z,2.90
2019-01-02T12:21:06.633Z,4.07
2019-01-02T12:23:34.663Z,2.27
2019-01-02T12:26:02.121Z,3.90
2019-01-02T12:28:29.601Z,3.53
2019-01-02T12:30:56.699Z,2.30
2019-01-02T12:33:23.854Z,2.67
2019-01-02T12:35:50.943Z,1.73
2019-01-02T12:38:18.151Z,2.47
2019-01-02T12:40:45.229Z,2.30
2019-01-02T12:43:12.470Z,2.70
2019-01-02T12:45:39.905Z,2.43
2019-01-02T12:48:07.276Z,2.47
2019-01-02T12:50:34.376Z,1.90
2019-01-02T12:53:01.594Z,2.47
2019-01-02T12:55:28.771Z,2.10
2019-01-02T12:57:56.138Z,2.67
2019-01-02T13:00:23.986Z,2.30
2019-01-02T13:03:51.013Z,2.33
2019-01-02T13:07:04.018Z,1.70
2019-01-02T13:09:54.578Z,2.00
2019-01-02T13:13:11.701Z,1.87
2019-01-02T13:16:30.149Z,2.10
2019-01-02T13:19:32.266Z,1.73
2019-01-02T13:22:31.676Z,1.83
2019-01-02T13:25:33.246Z,2.30
2019-01-02T13:28:38.443Z,1.77
2019-01-02T13:31:50.478Z,1.60
2019-01-02T13:34:56.429Z,2.23
2019-01-02T13:37:40.266Z,1.47
2019-01-02T13:40:31.319Z,1.60
2019-01-02T13:43:30.612Z,2.57
2019-01-02T13:46:32.083Z,1.60
2019-01-02T13:49:49.853Z,1.50
2019-01-02T13:52:17.097Z,1.67
2019-01-02T13:54:44.292Z,1.90
2019-01-02T13:57:11.501Z,1.80
2019-01-02T13:59:38.580Z,1.47
2019-01-02T14:02:05.827Z,1.73
2019-01-02T14:04:34.052Z,2.10
2019-01-02T14:07:01.234Z,2.13
2019-01-02T14:09:28.337Z,1.47
2019-01-02T14:11:55.500Z,2.10
2019-01-02T14:14:22.756Z,1.73
2019-01-02T14:16:49.918Z,2.07
2019-01-02T14:19:17.377Z,2.20
2019-01-02T14:21:44.822Z,1.63
2019-01-02T14:24:12.020Z,1.80
2019-01-02T14:26:39.194Z,1.73
2019-01-02T14:29:06.453Z,2.20
2019-01-02T14:31:38.639Z,2.00
2019-01-02T14:34:03.274Z,1.70
2019-01-02T14:36:30.944Z,1.80
2019-01-02T14:38:58.101Z,1.80
2019-01-02T14:41:25.566Z,1.60
2019-01-02T14:43:52.763Z,2.03
2019-01-02T14:46:19.872Z,1.87
2019-01-02T14:48:47.048Z,1.90
2019-01-02T14:51:14.134Z,2.77
2019-01-02T14:53:41.609Z,1.97
2019-01-02T14:56:08.797Z,2.37
2019-01-02T14:58:36.005Z,2.27
2019-01-02T15:01:03.213Z,1.80
2019-01-02T15:03:30.373Z,2.30
2019-01-02T15:05:57.485Z,2.00
2019-01-02T15:08:24.573Z,1.90
2019-01-02T15:10:52.934Z,1.80
2019-01-02T15:13:20.153Z,1.73
2019-01-02T15:15:47.586Z,2.00
2019-01-02T15:18:14.749Z,2.20
2019-01-02T15:20:41.977Z,2.03
2019-01-02T15:23:09.175Z,1.97
2019-01-02T15:25:36.337Z,2.07
2019-01-02T15:28:03.437Z,2.13
2019-01-02T15:30:30.916Z,1.80
2019-01-02T15:32:58.263Z,1.63
2019-01-02T15:35:25.452Z,1.47
2019-01-02T15:37:52.683Z,1.67
2019-01-02T15:40:19.881Z,2.27
2019-01-02T15:42:47.134Z,1.73
2019-01-02T15:45:14.321Z,1.70
2019-01-02T15:47:41.732Z,2.00
2019-01-02T15:50:10.036Z,1.87
2019-01-02T15:52:37.198Z,1.80
2019-01-02T15:55:04.606Z,1.77
2019-01-02T15:57:31.809Z,1.90
2019-01-02T15:59:59.010Z,1.97
2019-01-02T16:02:26.197Z,1.93
2019-01-02T16:04:53.397Z,2.70
2019-01-02T16:07:20.562Z,2.17
2019-01-02T16:09:47.651Z,1.83
2019-01-02T16:12:15.188Z,1.80
2019-01-02T16:14:42.246Z,1.40
2019-01-02T16:17:09.398Z,1.77
2019-01-02T16:19:36.575Z,2.27
2019-01-02T16:22:03.741Z,1.73
2019-01-02T16:24:30.920Z,2.23
2019-01-02T16:26:58.161Z,1.93
2019-01-02T16:29:25.319Z,1.80
2019-01-02T16:31:52.467Z,1.80
2019-01-02T16:34:19.747Z,2.00
2019-01-02T16:36:46.908Z,2.20
2019-01-02T16:39:14.082Z,2.43
2019-01-02T16:41:41.560Z,1.93
2019-01-02T16:44:08.757Z,1.80
2019-01-02T16:46:35.937Z,2.17
2019-01-02T16:49:03.559Z,2.40
2019-01-02T16:51:30.655Z,2.00
2019-01-02T16:53:57.827Z,2.27
2019-01-02T16:56:24.973Z,1.83
2019-01-02T16:58:52.150Z,1.93
2019-01-02T17:01:19.352Z,1.50
2019-01-02T17:03:46.547Z,1.90
2019-01-02T17:06:13.751Z,2.13
2019-01-02T17:08:40.917Z,1.50
2019-01-02T17:11:08.156Z,2.00
2019-01-02T17:13:35.314Z,1.53
2019-01-02T17:16:02.509Z,2.00
2019-01-02T17:18:30.007Z,1.73
2019-01-02T17:20:57.110Z,1.60
2019-01-02T17:23:24.290Z,1.60
2019-01-02T17:25:51.530Z,2.07
2019-01-02T17:28:18.598Z,1.60
2019-01-02T17:30:45.782Z,2.00
2019-01-02T17:33:12.892Z,2.13
2019-01-02T17:35:39.982Z,2.00
2019-01-02T17:38:07.050Z,1.63
2019-01-02T17:40:34.283Z,1.60
2019-01-02T17:43:01.452Z,2.10
2019-01-02T17:45:28.663Z,2.47
2019-01-02T17:47:55.798Z,2.20
2019-01-02T17:50:23.268Z,1.40
2019-01-02T17:52:50.478Z,1.13
2019-01-02T17:55:17.664Z,1.57
2019-01-02T17:57:44.879Z,1.90
2019-01-02T18:00:12.282Z,1.73
2019-01-02T18:02:39.843Z,1.90
2019-01-02T18:05:07.155Z,1.73
2019-01-02T18:07:34.370Z,1.60
2019-01-02T18:10:01.618Z,1.60
2019-01-02T18:12:28.837Z,1.60
2019-01-02T18:14:55.910Z,1.13
2019-01-02T18:17:23.143Z,1.80
2019-01-02T18:19:50.350Z,2.20
2019-01-02T18:22:17.528Z,1.30
2019-01-02T18:24:44.757Z,2.13
2019-01-02T18:27:11.962Z,2.27
2019-01-02T18:29:39.154Z,2.20
2019-01-02T18:32:06.341Z,1.57
2019-01-02T18:34:33.527Z,1.87
2019-01-02T18:37:00.713Z,2.00
2019-01-02T18:39:27.947Z,1.50
2019-01-02T18:41:55.127Z,2.00
2019-01-02T18:44:22.319Z,2.07
2019-01-02T18:46:49.581Z,1.27
2019-01-02T18:49:16.760Z,1.70
2019-01-02T18:51:43.959Z,1.90
2019-01-02T18:54:11.165Z,1.73
2019-01-02T18:56:38.247Z,2.70
2019-01-02T18:59:05.447Z,1.70
2019-01-02T19:01:32.652Z,1.70
2019-01-02T19:03:59.827Z,1.90
2019-01-02T19:06:26.993Z,2.30
2019-01-02T19:08:54.230Z,1.80
2019-01-02T19:11:21.413Z,1.83
2019-01-02T19:13:48.630Z,1.87
2019-01-02T19:16:21.493Z,2.10
2019-01-02T19:18:45.289Z,2.20
2019-01-02T19:21:12.512Z,2.27
2019-01-02T19:23:40.382Z,2.40
2019-01-02T19:26:07.579Z,1.87
2019-01-02T19:28:34.779Z,2.07
2019-01-02T19:31:02.084Z,2.03
2019-01-02T19:33:29.263Z,1.97
2019-01-02T19:35:56.370Z,2.13
2019-01-02T19:38:23.503Z,1.83
2019-01-02T19:40:50.648Z,1.70
2019-01-02T19:43:17.854Z,2.20
2019-01-02T19:45:45.394Z,1.63
2019-01-02T19:48:12.452Z,1.53
2019-01-02T19:50:39.542Z,1.90
2019-01-02T19:53:07.072Z,1.90
2019-01-02T19:55:34.299Z,1.90
2019-01-02T19:58:01.552Z,1.90
2019-01-02T20:00:28.891Z,1.57
2019-01-02T20:02:56.317Z,2.83
2019-01-02T20:05:23.534Z,1.80
2019-01-02T20:07:50.820Z,1.70
2019-01-02T20:10:18.430Z,1.90
2019-01-02T20:12:45.910Z,2.00
2019-01-02T20:15:13.173Z,1.90
2019-01-02T20:17:40.250Z,2.13
2019-01-02T20:20:09.409Z,2.10
2019-01-02T20:22:36.636Z,2.00
2019-01-02T20:25:04.084Z,1.60
2019-01-02T20:27:31.290Z,1.63
2019-01-02T20:29:58.739Z,1.90
2019-01-02T20:32:25.914Z,1.70
2019-01-02T20:34:53.099Z,2.37
2019-01-02T20:37:20.368Z,2.60
2019-01-02T20:39:47.535Z,1.77
2019-01-02T20:42:14.743Z,1.30
2019-01-02T20:44:41.924Z,1.73
2019-01-02T20:47:09.431Z,2.00
2019-01-02T20:49:36.642Z,1.60
2019-01-02T20:52:03.876Z,1.30
2019-01-02T20:54:31.091Z,1.87
2019-01-02T20:56:58.185Z,1.67
2019-01-02T20:59:25.425Z,1.80
2019-01-02T21:01:53.760Z,1.73
2019-01-02T21:04:21.074Z,1.30
2019-01-02T21:06:48.161Z,1.73
2019-01-02T21:09:15.333Z,1.90
2019-01-02T21:11:42.547Z,1.37
2019-01-02T21:14:09.773Z,1.57
2019-01-02T21:16:36.960Z,1.47
2019-01-02T21:19:04.465Z,1.80
2019-01-02T21:21:31.686Z,2.10
2019-01-02T21:23:59.135Z,1.70
2019-01-02T21:26:26.642Z,1.60
2019-01-02T21:28:54.100Z,1.73
2019-01-02T21:31:21.680Z,1.50
2019-01-02T21:33:48.856Z,1.10
2019-01-02T21:36:16.232Z,2.17
2019-01-02T21:38:44.090Z,1.87
2019-01-02T21:41:11.889Z,1.17
2019-01-02T21:43:39.076Z,1.53
2019-01-02T21:46:06.294Z,1.83
2019-01-02T21:48:33.364Z,1.60
2019-01-02T21:51:00.576Z,1.67
2019-01-02T21:53:27.832Z,1.57
2019-01-02T21:55:55.030Z,1.40
2019-01-02T21:58:22.222Z,1.70
2019-01-02T22:00:49.710Z,1.90
2019-01-02T22:03:16.881Z,1.67
2019-01-02T22:05:43.981Z,2.00
2019-01-02T22:08:11.214Z,1.90
2019-01-02T22:10:38.356Z,1.90
2019-01-02T22:13:05.580Z,1.77
2019-01-02T22:15:32.724Z,2.03
2019-01-02T22:17:59.793Z,2.00
2019-01-02T22:20:26.995Z,1.87
2019-01-02T22:22:54.479Z,2.23
2019-01-02T22:25:21.945Z,2.30
2019-01-02T22:27:49.179Z,1.97
2019-01-02T22:30:16.258Z,2.40
2019-01-02T22:32:43.707Z,1.70
2019-01-02T22:35:10.909Z,1.93
2019-01-02T22:37:38.400Z,2.47
2019-01-02T22:40:06.586Z,2.67
2019-01-02T22:42:33.791Z,2.30
2019-01-02T22:45:00.945Z,2.20
2019-01-02T22:47:28.147Z,2.80
2019-01-02T22:49:55.331Z,3.00
2019-01-02T22:52:22.784Z,1.80
2019-01-02T22:54:49.953Z,2.17
2019-01-02T22:57:17.161Z,1.67
2019-01-02T22:59:44.629Z,2.83
2019-01-02T23:02:40.341Z,1.93
2019-01-02T23:05:42.048Z,2.17
2019-01-02T23:08:24.940Z,2.07
2019-01-02T23:11:07.940Z,2.30
2019-01-02T23:13:57.632Z,1.93
2019-01-02T23:16:43.053Z,1.60
2019-01-02T23:19:25.112Z,1.60
2019-01-02T23:22:08.467Z,1.97
2019-01-02T23:24:55.240Z,2.17
2019-01-02T23:27:45.057Z,1.70
2019-01-02T23:30:34.752Z,2.10
2019-01-02T23:33:33.841Z,2.13
2019-01-02T23:36:29.452Z,1.90
2019-01-02T23:39:18.689Z,2.27
2019-01-02T23:42:04.275Z,2.10
2019-01-02T23:44:59.906Z,2.17
2019-01-02T23:48:04.677Z,1.90
2019-01-02T23:50:54.180Z,2.10
2019-01-02T23:53:39.349Z,2.27
2019-01-02T23:56:21.849Z,2.07
2019-01-02T23:59:07.018Z,1.90
